Time;durP1;ratioP1;P1;durP2;ratioP2;P2;SDS_P1;SDS_P2;PMS_P1;PMS_P2;Temp;Humidity;BMP_temperature;BMP_pressure;BME280_temperature;BME280_humidity;BME280_pressure;Samples;Min_cycle;Max_cycle;Signal;HPM_P1;HPM_P2
2022/01/10 00:02:34;;;;;;;91.87;32.60;;;;;;;0.18;73.95;99397.31;2175721;80;20971;-79
2022/01/10 00:05:38;;;;;;;63.10;28.75;;;;;;;0.17;74.14;99391.72;2166043;81;20971;-80
2022/01/10 00:08:42;;;;;;;64.45;27.45;;;;;;;0.20;74.21;99406.69;2171687;80;21046;-80
2022/01/10 00:11:45;;;;;;;45.25;23.67;;;;;;;0.15;74.21;99404.08;2170972;81;21598;-80
2022/01/10 00:14:50;;;;;;;45.35;24.30;;;;;;;0.07;74.25;99406.44;2166043;81;21074;-80
2022/01/10 00:17:55;;;;;;;48.80;24.63;;;;;;;0.02;74.30;99408.08;2166070;81;21042;-77
2022/01/10 00:20:57;;;;;;;48.58;26.65;;;;;;;0.02;74.38;99419.00;2169699;80;21012;-78
2022/01/10 00:23:58;;;;;;;47.05;24.95;;;;;;;-0.01;74.39;99420.88;2178682;80;21433;-78
2022/01/10 00:27:03;;;;;;;44.03;23.53;;;;;;;-0.04;74.45;99419.81;2151228;80;21925;-78
2022/01/10 00:30:10;;;;;;;47.70;23.32;;;;;;;-0.06;74.65;99424.34;2181317;80;21049;-78
2022/01/10 00:33:13;;;;;;;44.10;23.27;;;;;;;-0.03;74.66;99429.77;2176998;81;21018;-78
2022/01/10 00:36:18;;;;;;;48.08;24.65;;;;;;;0.02;74.82;99433.34;2175935;81;21002;-78
2022/01/10 00:39:20;;;;;;;46.98;24.77;;;;;;;0.09;74.90;99443.20;2176534;81;20971;-78
2022/01/10 00:42:25;;;;;;;46.80;23.67;;;;;;;0.15;74.84;99445.82;2180578;81;20980;-78
2022/01/10 00:45:30;;;;;;;50.45;24.82;;;;;;;0.16;74.87;99450.08;2173271;81;20995;-78
2022/01/10 00:48:34;;;;;;;44.13;24.20;;;;;;;0.20;74.92;99456.74;2176912;81;21054;-78
2022/01/10 00:51:37;;;;;;;43.92;23.45;;;;;;;0.26;74.95;99458.88;2179242;81;21000;-77
2022/01/10 00:54:42;;;;;;;47.10;24.15;;;;;;;0.31;74.97;99462.42;2180637;81;21005;-78
2022/01/10 00:57:46;;;;;;;131.12;41.63;;;;;;;0.29;74.80;99465.17;2172300;81;20966;-78
2022/01/10 01:00:51;;;;;;;71.15;28.10;;;;;;;0.19;74.80;99458.98;2173753;80;21044;-79
2022/01/10 01:04:02;;;;;;;75.50;30.20;;;;;;;0.15;74.99;99464.08;2178632;81;21102;-80
2022/01/10 01:07:06;;;;;;;87.37;30.88;;;;;;;0.17;75.09;99472.60;2178941;81;20984;-79
2022/01/10 01:10:51;;;;;;;51.60;25.23;;;;;;;0.26;75.20;99471.93;2176220;81;21103;-79
2022/01/10 01:13:33;;;;;;;41.10;22.62;;;;;;;0.31;75.09;99484.16;2172588;81;21022;-80
2022/01/10 01:20:08;;;;;;;46.08;22.85;;;;;;;0.19;75.04;99488.98;2178084;81;21748;-79
2022/01/10 01:26:17;;;;;;;77.63;30.80;;;;;;;0.12;75.09;99494.32;2155408;81;21672;-78
2022/01/10 01:29:26;;;;;;;46.53;23.32;;;;;;;0.13;75.38;99494.67;2153105;81;20979;-78
2022/01/10 01:32:28;;;;;;;43.45;23.12;;;;;;;-0.02;75.05;99506.61;2176631;81;21763;-78
2022/01/10 01:35:34;;;;;;;55.10;26.20;;;;;;;-0.12;75.26;99503.48;2178985;81;21034;-78
2022/01/10 01:38:37;;;;;;;72.20;31.12;;;;;;;-0.14;75.54;99510.59;2174122;81;21831;-78
2022/01/10 01:41:42;;;;;;;53.50;25.32;;;;;;;-0.08;75.61;99514.89;2175233;81;20984;-78
2022/01/10 01:44:48;;;;;;;45.55;23.60;;;;;;;-0.03;75.71;99514.09;2177711;81;21022;-78
2022/01/10 01:47:54;;;;;;;41.40;21.52;;;;;;;0.02;75.79;99523.34;2179303;81;20994;-78
2022/01/10 01:50:58;;;;;;;41.68;22.25;;;;;;;0.09;75.78;99525.38;2175703;81;21054;-78
2022/01/10 01:54:03;;;;;;;39.48;22.27;;;;;;;0.10;75.67;99530.13;2177453;81;21015;-79
2022/01/10 01:57:06;;;;;;;44.35;23.25;;;;;;;0.02;75.68;99529.86;2173693;81;21015;-78
2022/01/10 02:00:09;;;;;;;43.17;23.40;;;;;;;-0.04;75.88;99531.97;2175599;81;20974;-78
2022/01/10 02:03:13;;;;;;;45.03;23.22;;;;;;;-0.10;75.97;99537.64;2170392;81;20987;-78
2022/01/10 02:06:17;;;;;;;54.85;25.75;;;;;;;-0.15;76.04;99539.75;2175097;81;21033;-78
2022/01/10 02:09:20;;;;;;;53.23;27.05;;;;;;;-0.18;76.19;99546.50;2176659;81;21082;-78
2022/01/10 02:12:24;;;;;;;64.53;30.72;;;;;;;-0.18;76.33;99558.70;2175802;81;20990;-78
2022/01/10 02:15:47;;;;;;;69.07;31.52;;;;;;;-0.20;76.68;99561.41;2176142;81;21078;-78
2022/01/10 02:18:46;;;;;;;78.47;35.20;;;;;;;-0.21;76.53;99562.84;2174640;81;21036;-78
2022/01/10 02:21:48;;;;;;;65.12;29.90;;;;;;;-0.20;76.54;99566.63;2187864;80;21248;-78
2022/01/10 02:24:51;;;;;;;69.30;32.70;;;;;;;-0.18;76.63;99567.36;2172100;80;21566;-78
2022/01/10 02:27:55;;;;;;;67.62;32.17;;;;;;;-0.08;76.75;99573.58;2189685;80;21054;-78
2022/01/10 02:31:01;;;;;;;67.03;32.73;;;;;;;0.04;76.73;99577.06;2196967;79;21047;-78
2022/01/10 02:34:07;;;;;;;66.05;30.85;;;;;;;0.05;76.57;99585.71;2211893;79;20996;-78
2022/01/10 02:37:11;;;;;;;69.65;31.02;;;;;;;0.01;76.56;99591.63;2195449;79;20973;-78
2022/01/10 02:40:17;;;;;;;68.25;31.75;;;;;;;0.01;76.62;99598.16;2209360;79;20986;-78
2022/01/10 02:43:21;;;;;;;64.42;32.85;;;;;;;0.06;76.74;99601.27;2208087;79;21517;-78
2022/01/10 02:46:29;;;;;;;62.55;31.17;;;;;;;0.13;76.71;99599.02;2212403;79;21731;-78
2022/01/10 02:49:37;;;;;;;59.35;28.70;;;;;;;0.11;76.51;99600.42;2199703;79;21637;-79
2022/01/10 02:52:39;;;;;;;63.02;29.77;;;;;;;0.06;76.55;99603.88;2193729;79;20982;-79
2022/01/10 02:55:46;;;;;;;58.73;29.15;;;;;;;0.00;76.59;99609.55;2185956;79;21850;-79
2022/01/10 02:58:50;;;;;;;55.23;27.73;;;;;;;-0.07;76.65;99615.66;2184877;79;21000;-79
2022/01/10 03:01:54;;;;;;;60.05;29.67;;;;;;;-0.06;76.78;99618.64;2215047;79;22014;-79
2022/01/10 03:04:59;;;;;;;56.55;29.35;;;;;;;-0.11;76.77;99619.45;2207854;79;21805;-79
2022/01/10 03:08:02;;;;;;;53.63;26.82;;;;;;;-0.15;76.82;99618.46;2195287;79;21000;-79
2022/01/10 03:11:06;;;;;;;50.88;26.35;;;;;;;-0.18;76.88;99619.98;2180733;79;21084;-79
2022/01/10 03:14:08;;;;;;;52.17;27.07;;;;;;;-0.19;76.97;99617.86;2211548;79;20977;-79
2022/01/10 03:17:12;;;;;;;52.83;26.27;;;;;;;-0.21;76.94;99622.82;2196740;79;21084;-79
2022/01/10 03:20:16;;;;;;;56.48;29.37;;;;;;;-0.17;77.15;99632.08;2199863;79;21030;-79
2022/01/10 03:23:20;;;;;;;51.08;26.15;;;;;;;-0.12;77.10;99633.41;2169845;80;21018;-79
2022/01/10 03:26:24;;;;;;;50.45;25.88;;;;;;;-0.11;77.00;99644.22;2180551;80;21240;-79
2022/01/10 03:29:28;;;;;;;48.98;25.15;;;;;;;-0.12;77.00;99643.84;2196114;80;20973;-79
2022/01/10 03:32:34;;;;;;;51.45;26.40;;;;;;;-0.16;77.01;99656.75;2191106;80;21062;-79
2022/01/10 03:35:37;;;;;;;55.00;26.85;;;;;;;-0.18;77.08;99658.63;2193699;80;21065;-79
2022/01/10 03:38:42;;;;;;;52.78;25.92;;;;;;;-0.21;77.15;99665.84;2192783;80;21062;-79
2022/01/10 03:41:48;;;;;;;51.98;25.88;;;;;;;-0.16;77.30;99663.27;2184854;80;21300;-79
2022/01/10 03:44:53;;;;;;;51.65;26.27;;;;;;;-0.07;77.37;99671.73;2189264;80;21298;-79
2022/01/10 03:47:55;;;;;;;56.33;27.77;;;;;;;0.06;77.38;99673.45;2175636;81;21053;-79
2022/01/10 03:50:58;;;;;;;57.62;26.70;;;;;;;0.10;77.49;99673.61;2167251;81;21029;-79
2022/01/10 03:54:04;;;;;;;60.25;26.40;;;;;;;0.03;77.14;99682.36;2182289;81;21084;-79
2022/01/10 03:57:07;;;;;;;56.05;27.05;;;;;;;-0.04;77.10;99690.25;2182612;81;20963;-79
2022/01/10 04:00:12;;;;;;;53.10;25.68;;;;;;;-0.13;77.16;99695.65;2185103;81;21006;-79
2022/01/10 04:03:24;;;;;;;51.75;24.82;;;;;;;-0.13;77.36;99693.04;2184726;80;21525;-79
2022/01/10 04:06:31;;;;;;;55.33;26.97;;;;;;;-0.11;77.37;99704.69;2184834;80;21047;-78
2022/01/10 04:09:34;;;;;;;56.75;27.45;;;;;;;-0.16;77.38;99708.91;2189125;80;21882;-79
2022/01/10 04:12:35;;;;;;;58.48;28.62;;;;;;;-0.16;77.47;99713.30;2177382;80;21029;-79
2022/01/10 04:15:42;;;;;;;57.95;27.22;;;;;;;-0.18;77.48;99722.52;2181561;80;20986;-79
2022/01/10 04:18:47;;;;;;;56.75;27.32;;;;;;;-0.15;77.60;99727.52;2195139;80;21045;-79
2022/01/10 04:21:51;;;;;;;66.77;31.42;;;;;;;-0.11;77.66;99719.86;2190954;79;21061;-79
2022/01/10 04:25:00;;;;;;;60.27;28.83;;;;;;;-0.03;77.73;99725.81;2208123;79;21054;-79
2022/01/10 04:28:06;;;;;;;55.45;27.95;;;;;;;0.03;77.77;99734.53;2178745;79;21897;-79
2022/01/10 04:31:11;;;;;;;53.60;27.03;;;;;;;0.07;77.70;99737.75;2211294;79;21015;-79
2022/01/10 04:34:15;;;;;;;53.50;26.25;;;;;;;0.12;77.76;99742.17;2188207;79;21041;-79
2022/01/10 04:37:21;;;;;;;59.38;28.90;;;;;;;0.15;77.66;99754.52;2220847;79;21058;-79
2022/01/10 04:40:25;;;;;;;60.75;29.12;;;;;;;0.18;77.64;99761.30;2213660;78;21043;-79
2022/01/10 04:43:30;;;;;;;104.83;44.50;;;;;;;0.16;77.60;99773.61;2184751;79;21045;-79
2022/01/10 04:46:35;;;;;;;53.92;26.80;;;;;;;0.12;77.57;99780.83;2189045;80;21010;-79
2022/01/10 04:52:58;;;;;;;74.70;29.57;;;;;;;-0.20;77.62;99790.89;2214119;79;21048;-79
2022/01/10 04:56:06;;;;;;;85.70;32.33;;;;;;;-0.28;77.91;99791.92;2224115;79;21811;-79
2022/01/10 04:59:12;;;;;;;47.43;22.75;;;;;;;-0.27;78.05;99795.70;2212436;79;21052;-79
2022/01/10 05:02:16;;;;;;;43.02;22.65;;;;;;;-0.24;77.99;99802.48;2184753;80;21015;-79
2022/01/10 05:05:23;;;;;;;45.58;22.77;;;;;;;-0.26;78.03;99804.36;2210641;79;21093;-77
2022/01/10 05:08:28;;;;;;;45.88;23.32;;;;;;;-0.28;78.12;99803.17;2201845;79;21493;-79
2022/01/10 05:11:33;;;;;;;44.93;22.52;;;;;;;-0.27;78.26;99809.22;2191531;79;21522;-79
2022/01/10 05:14:37;;;;;;;47.00;23.98;;;;;;;-0.33;78.24;99815.69;2204408;79;21053;-80
2022/01/10 05:17:44;;;;;;;46.05;24.00;;;;;;;-0.33;78.32;99819.59;2211018;79;21504;-77
2022/01/10 05:20:45;;;;;;;48.10;24.10;;;;;;;-0.36;78.35;99821.59;2222745;79;21776;-77
2022/01/10 05:23:47;;;;;;;105.05;46.58;;;;;;;-0.38;78.40;99825.59;2217190;79;21152;-77
2022/01/10 05:26:52;;;;;;;59.25;26.40;;;;;;;-0.41;78.44;99821.89;2212469;79;21440;-79
2022/01/10 05:29:55;;;;;;;53.02;25.72;;;;;;;-0.45;78.45;99832.17;2207312;79;21046;-79
2022/01/10 05:33:03;;;;;;;48.33;24.40;;;;;;;-0.53;78.55;99836.59;2211871;79;21084;-80
2022/01/10 05:36:07;;;;;;;50.78;24.30;;;;;;;-0.54;78.64;99845.33;2208774;79;21080;-85
2022/01/10 05:39:15;;;;;;;41.55;21.77;;;;;;;-0.55;78.70;99849.35;2188333;79;21086;-81
2022/01/10 05:42:24;;;;;;;48.83;26.10;;;;;;;-0.55;78.70;99858.48;2214386;79;21491;-81
2022/01/10 05:45:29;;;;;;;46.83;22.60;;;;;;;-0.57;78.69;99859.87;2203173;79;21080;-84
2022/01/10 05:48:35;;;;;;;43.60;23.00;;;;;;;-0.62;78.70;99863.71;2188098;79;20982;-81
2022/01/10 05:51:41;;;;;;;47.33;23.98;;;;;;;-0.65;78.70;99871.27;2211979;79;21047;-81
2022/01/10 05:55:03;;;;;;;48.92;24.55;;;;;;;-0.70;78.66;99870.75;2184951;79;21144;-81
2022/01/10 05:58:08;;;;;;;51.37;25.85;;;;;;;-0.76;78.71;99873.73;2193913;79;21036;-80
2022/01/10 06:01:15;;;;;;;45.33;22.98;;;;;;;-0.79;78.74;99890.88;2209552;79;21571;-78
2022/01/10 06:04:21;;;;;;;50.52;25.02;;;;;;;-0.83;78.78;99893.33;2181753;79;21295;-80
2022/01/10 06:07:25;;;;;;;47.78;25.75;;;;;;;-0.89;78.75;99902.84;2206177;79;21081;-82
2022/01/10 06:10:31;;;;;;;47.20;24.85;;;;;;;-0.95;78.89;99917.94;2182890;79;21041;-82
2022/01/10 06:13:39;;;;;;;50.52;26.23;;;;;;;-1.01;79.03;99928.75;2207810;79;21024;-82
2022/01/10 06:16:45;;;;;;;58.55;28.25;;;;;;;-1.07;79.17;99925.67;2203840;79;21561;-82
2022/01/10 06:19:52;;;;;;;61.40;30.50;;;;;;;-1.13;79.18;99937.31;2183957;79;21041;-82
2022/01/10 06:22:56;;;;;;;57.88;27.73;;;;;;;-1.17;79.22;99947.57;2194972;79;21091;-82
2022/01/10 06:26:02;;;;;;;53.00;26.87;;;;;;;-1.21;79.23;99949.98;2162709;80;21059;-82
2022/01/10 06:29:09;;;;;;;54.90;28.02;;;;;;;-1.22;79.29;99961.33;2184180;80;21520;-82
2022/01/10 06:32:11;;;;;;;53.30;27.32;;;;;;;-1.24;79.33;99964.48;2178394;80;21847;-79
2022/01/10 06:35:18;;;;;;;56.95;29.30;;;;;;;-1.23;79.48;99980.50;2141755;80;21075;-80
2022/01/10 06:38:23;;;;;;;63.90;29.07;;;;;;;-1.25;79.52;99986.26;2191171;79;21091;-82
2022/01/10 06:41:25;;;;;;;62.50;30.25;;;;;;;-1.29;79.44;99990.83;2185013;80;21260;-79
2022/01/10 06:44:29;;;;;;;70.20;31.85;;;;;;;-1.28;79.48;100009.88;2138362;80;21575;-81
2022/01/10 06:47:36;;;;;;;66.75;32.48;;;;;;;-1.31;79.56;100007.47;2160223;80;21806;-82
2022/01/10 06:50:39;;;;;;;70.97;35.05;;;;;;;-1.33;79.75;100027.55;2155705;80;21800;-82
2022/01/10 06:53:44;;;;;;;78.02;36.85;;;;;;;-1.40;79.73;100030.52;2150765;80;21509;-82
2022/01/10 06:56:50;;;;;;;84.25;37.42;;;;;;;-1.42;79.75;100036.28;2192651;80;21059;-84
2022/01/10 06:59:52;;;;;;;92.97;40.83;;;;;;;-1.45;79.86;100042.14;2189716;80;21766;-81
2022/01/10 07:02:59;;;;;;;99.35;37.10;;;;;;;-1.50;79.96;100050.21;2188187;80;21011;-79
2022/01/10 07:06:04;;;;;;;92.20;41.18;;;;;;;-1.56;80.03;100062.77;2178687;80;21039;-82
2022/01/10 07:09:08;;;;;;;106.97;45.33;;;;;;;-1.63;79.90;100068.80;2161617;80;21047;-83
2022/01/10 07:12:12;;;;;;;121.82;49.13;;;;;;;-1.67;79.91;100079.00;2173761;80;21595;-83
2022/01/10 07:15:20;;;;;;;117.60;46.73;;;;;;;-1.70;79.95;100086.52;2175350;80;21528;-83
2022/01/10 07:18:24;;;;;;;110.75;45.00;;;;;;;-1.73;80.19;100084.09;2177819;80;21059;-82
2022/01/10 07:21:30;;;;;;;114.42;50.65;;;;;;;-1.79;80.17;100101.84;2184948;80;21078;-82
2022/01/10 07:24:39;;;;;;;121.00;50.23;;;;;;;-1.84;80.21;100103.39;2221080;79;21486;-81
2022/01/10 07:27:41;;;;;;;119.57;53.65;;;;;;;-1.86;80.24;100112.59;2215890;79;21005;-82
2022/01/10 07:30:46;;;;;;;120.08;53.78;;;;;;;-1.85;80.29;100115.56;2215235;79;21493;-81
2022/01/10 07:33:47;;;;;;;110.40;51.13;;;;;;;-1.83;80.22;100121.52;2213111;79;21009;-81
2022/01/10 07:36:49;;;;;;;107.70;49.18;;;;;;;-1.79;80.23;100120.05;2213035;79;21031;-81
2022/01/10 07:39:58;;;;;;;103.25;45.55;;;;;;;-1.75;80.19;100130.63;2193376;79;21041;-82
2022/01/10 07:43:05;;;;;;;104.80;47.62;;;;;;;-1.71;80.15;100137.36;2218591;79;21660;-82
2022/01/10 07:46:10;;;;;;;110.52;47.83;;;;;;;-1.65;80.13;100142.20;2203621;79;21034;-82
2022/01/10 07:49:23;;;;;;;100.42;44.45;;;;;;;-1.61;80.14;100148.89;2204367;79;21281;-80
2022/01/10 07:52:26;;;;;;;103.42;48.45;;;;;;;-1.56;80.15;100153.84;2210020;79;21064;-82
2022/01/10 07:55:29;;;;;;;115.62;51.70;;;;;;;-1.55;80.09;100160.24;2213786;79;20985;-80
2022/01/10 07:58:34;;;;;;;112.57;47.03;;;;;;;-1.55;80.15;100170.66;2212227;79;21037;-77
2022/01/10 08:01:38;;;;;;;110.85;49.83;;;;;;;-1.54;80.14;100176.72;2209827;79;21283;-79
2022/01/10 08:04:39;;;;;;;113.55;51.28;;;;;;;-1.53;80.22;100185.72;2208867;79;20974;-80
2022/01/10 08:07:46;;;;;;;107.97;52.03;;;;;;;-1.48;80.25;100191.50;2209722;79;21275;-79
2022/01/10 08:10:51;;;;;;;111.32;48.50;;;;;;;-1.48;80.06;100190.20;2209328;79;21020;-82
2022/01/10 08:13:54;;;;;;;118.15;53.73;;;;;;;-1.45;80.11;100203.51;2208856;79;21044;-79
2022/01/10 08:16:58;;;;;;;115.75;51.13;;;;;;;-1.42;80.04;100209.84;2206908;79;21501;-83
2022/01/10 08:19:59;;;;;;;120.85;51.85;;;;;;;-1.35;80.11;100208.57;2213929;79;20982;-84
2022/01/10 08:23:01;;;;;;;127.60;55.38;;;;;;;-1.26;80.08;100211.94;2191190;79;20965;-84
2022/01/10 08:26:08;;;;;;;118.30;52.55;;;;;;;-1.15;80.01;100216.05;2185682;80;21021;-83
2022/01/10 08:29:10;;;;;;;120.15;50.50;;;;;;;-1.02;79.64;100225.27;2172523;80;21038;-83
2022/01/10 08:32:12;;;;;;;125.57;54.13;;;;;;;-0.95;79.62;100236.19;2181235;80;21021;-82
2022/01/10 08:35:16;;;;;;;121.75;55.67;;;;;;;-0.85;79.45;100236.47;2178234;80;21709;-83
2022/01/10 08:38:21;;;;;;;122.70;55.45;;;;;;;-0.75;79.37;100245.42;2183291;80;21774;-83
2022/01/10 08:41:26;;;;;;;125.40;56.33;;;;;;;-0.67;79.14;100245.81;2120159;82;21310;-83
2022/01/10 08:44:28;;;;;;;120.65;55.05;;;;;;;-0.61;78.90;100251.13;2182091;80;21299;-83
2022/01/10 08:47:33;;;;;;;113.08;49.13;;;;;;;-0.49;79.07;100251.67;2090036;84;21094;-84
2022/01/10 08:50:35;;;;;;;117.33;51.63;;;;;;;-0.38;78.64;100251.03;2102820;83;21002;-83
2022/01/10 08:53:37;;;;;;;120.35;56.40;;;;;;;-0.34;78.54;100262.48;2099871;82;21791;-83
2022/01/10 08:56:41;;;;;;;130.05;58.78;;;;;;;-0.31;78.35;100264.91;2104750;83;21039;-84
2022/01/10 08:59:43;;;;;;;115.70;52.48;;;;;;;-0.26;78.26;100263.30;2182137;80;20989;-84
2022/01/10 09:02:45;;;;;;;121.87;56.90;;;;;;;-0.12;78.27;100279.41;2162569;80;21193;-84
2022/01/10 09:05:46;;;;;;;117.22;54.80;;;;;;;0.09;78.57;100283.31;2163768;80;21117;-85
2022/01/10 09:08:49;;;;;;;124.07;57.55;;;;;;;0.32;78.09;100288.38;2181462;80;21007;-85
2022/01/10 09:11:53;;;;;;;130.72;60.80;;;;;;;0.29;77.55;100290.36;2180222;80;21023;-85
2022/01/10 09:14:59;;;;;;;123.10;55.50;;;;;;;0.41;77.86;100293.48;2177867;80;21597;-83
2022/01/10 09:18:01;;;;;;;126.10;57.23;;;;;;;0.56;77.35;100307.33;2184723;80;20958;-83
2022/01/10 09:21:04;;;;;;;119.97;55.75;;;;;;;0.63;76.30;100315.16;2178532;80;20990;-84
2022/01/10 09:24:13;;;;;;;128.38;57.60;;;;;;;0.55;76.24;100309.11;2202972;79;21842;-85
2022/01/10 09:27:15;;;;;;;122.07;53.83;;;;;;;0.37;75.94;100308.52;2212623;79;21090;-85
2022/01/10 09:30:17;;;;;;;129.20;53.08;;;;;;;0.16;75.52;100309.38;2213628;79;21001;-83
2022/01/10 09:33:21;;;;;;;124.07;57.23;;;;;;;0.07;75.92;100324.78;2214846;79;21044;-84
2022/01/10 09:36:27;;;;;;;119.13;54.85;;;;;;;-0.05;76.16;100324.59;2203777;79;21502;-84
2022/01/10 09:39:34;;;;;;;120.67;57.00;;;;;;;-0.06;76.25;100327.28;2198583;79;21028;-83
2022/01/10 09:42:38;;;;;;;121.87;56.48;;;;;;;-0.01;76.69;100328.69;2208990;79;20964;-83
2022/01/10 09:45:43;;;;;;;118.30;56.20;;;;;;;0.07;76.49;100323.00;2216066;79;21029;-84
2022/01/10 09:48:46;;;;;;;112.72;56.35;;;;;;;0.22;76.35;100329.03;2211339;79;20984;-84
2022/01/10 09:51:49;;;;;;;115.12;52.43;;;;;;;0.40;76.46;100337.03;2220767;79;21012;-84
2022/01/10 09:54:53;;;;;;;113.62;53.58;;;;;;;0.50;75.66;100340.36;2206740;79;21280;-85
2022/01/10 09:58:00;;;;;;;120.25;55.43;;;;;;;0.50;75.17;100342.50;2216305;79;21500;-85
2022/01/10 10:01:03;;;;;;;117.80;54.40;;;;;;;0.57;75.45;100352.11;2210633;79;21009;-85
2022/01/10 10:04:05;;;;;;;114.28;55.90;;;;;;;0.60;75.25;100354.52;2212741;79;21013;-84
2022/01/10 10:07:13;;;;;;;122.02;57.05;;;;;;;0.66;75.14;100363.27;2218787;79;21104;-84
2022/01/10 10:10:17;;;;;;;113.00;58.25;;;;;;;0.76;74.86;100372.66;2216211;79;21371;-84
2022/01/10 10:13:26;;;;;;;116.65;55.20;;;;;;;0.87;75.30;100377.59;2206896;79;21097;-85
2022/01/10 10:16:31;;;;;;;116.30;53.78;;;;;;;0.92;74.46;100378.58;2215805;79;20967;-85
2022/01/10 10:19:36;;;;;;;107.07;53.75;;;;;;;0.96;73.90;100386.61;2216551;79;21042;-84
2022/01/10 10:22:42;;;;;;;120.92;58.38;;;;;;;0.90;74.40;100389.59;2208535;79;21093;-85
2022/01/10 10:25:54;;;;;;;108.03;52.62;;;;;;;0.96;73.60;100400.11;2212028;79;21056;-84
2022/01/10 10:29:00;;;;;;;108.67;53.52;;;;;;;0.93;73.15;100409.45;2210239;79;20985;-85
2022/01/10 10:32:02;;;;;;;106.58;52.48;;;;;;;0.81;73.06;100417.14;2212199;79;21012;-84
2022/01/10 10:35:07;;;;;;;102.62;49.98;;;;;;;0.74;73.00;100421.09;2212997;79;21010;-85
2022/01/10 10:38:14;;;;;;;104.00;51.77;;;;;;;0.81;72.97;100421.06;2213381;79;21082;-86
2022/01/10 10:41:20;;;;;;;105.90;50.88;;;;;;;0.71;72.38;100426.51;2215625;79;21068;-85
2022/01/10 10:44:28;;;;;;;111.63;52.33;;;;;;;0.67;72.33;100439.38;2214280;79;21042;-85
2022/01/10 10:47:30;;;;;;;101.65;47.58;;;;;;;0.77;72.67;100441.80;2208210;79;20966;-85
2022/01/10 10:50:42;;;;;;;116.28;53.75;;;;;;;0.78;72.16;100445.23;2211323;79;21607;-85
2022/01/10 10:53:46;;;;;;;116.15;53.63;;;;;;;0.74;71.80;100455.52;2209560;79;21831;-82
2022/01/10 10:56:52;;;;;;;115.47;55.65;;;;;;;0.63;71.71;100459.62;2211467;79;21037;-81
2022/01/10 10:59:53;;;;;;;108.63;51.83;;;;;;;0.46;71.42;100468.97;2212661;79;21071;-84
2022/01/10 11:02:58;;;;;;;114.88;53.13;;;;;;;0.43;71.56;100464.77;2214042;79;21061;-82
2022/01/10 11:06:03;;;;;;;105.85;53.68;;;;;;;0.43;71.59;100480.43;2215370;79;20991;-84
2022/01/10 11:09:13;;;;;;;106.32;55.67;;;;;;;0.47;71.66;100481.08;2216579;79;21056;-85
2022/01/10 11:12:21;;;;;;;116.05;54.88;;;;;;;0.55;71.43;100485.37;2208857;79;21025;-84
2022/01/10 11:15:24;;;;;;;111.57;55.05;;;;;;;0.51;70.81;100488.25;2184243;79;21069;-85
2022/01/10 11:18:29;;;;;;;109.00;49.38;;;;;;;0.47;70.97;100494.13;2215145;79;21136;-84
2022/01/10 11:21:37;;;;;;;108.60;48.30;;;;;;;0.42;70.33;100495.73;2181594;79;21012;-85
2022/01/10 11:24:51;;;;;;;106.45;50.90;;;;;;;0.37;70.30;100501.69;2210912;79;21066;-85
2022/01/10 11:28:00;;;;;;;115.70;53.75;;;;;;;0.38;70.57;100512.50;2213287;79;21582;-84
2022/01/10 11:31:07;;;;;;;111.37;53.33;;;;;;;0.38;70.61;100519.02;2209714;79;21587;-85
2022/01/10 11:34:11;;;;;;;99.95;47.45;;;;;;;0.26;70.08;100523.69;2213040;79;21102;-85
2022/01/10 11:37:16;;;;;;;110.00;51.33;;;;;;;0.20;70.07;100528.80;2215540;79;21013;-85
2022/01/10 11:40:18;;;;;;;106.30;54.77;;;;;;;0.22;70.33;100535.22;2205376;79;21016;-85
2022/01/10 11:43:34;;;;;;;110.28;53.42;;;;;;;0.29;70.86;100530.02;2214411;79;21040;-85
2022/01/10 11:46:49;;;;;;;107.55;53.87;;;;;;;0.38;70.28;100539.91;2207562;79;20982;-85
2022/01/10 11:50:08;;;;;;;115.62;53.33;;;;;;;0.46;70.82;100539.94;2212310;79;21676;-84
2022/01/10 11:53:13;;;;;;;103.92;53.17;;;;;;;0.50;70.21;100539.64;2204722;79;20988;-85
2022/01/10 11:56:31;;;;;;;109.78;54.63;;;;;;;0.55;69.75;100544.59;2213474;79;21067;-84
2022/01/10 11:59:42;;;;;;;110.60;51.20;;;;;;;0.50;69.98;100553.16;2211748;79;20988;-82
2022/01/10 12:02:44;;;;;;;111.08;53.45;;;;;;;0.49;69.75;100556.72;2215073;79;21072;-86
2022/01/10 12:05:46;;;;;;;109.67;52.70;;;;;;;0.44;69.88;100559.13;2180948;79;21457;-83
2022/01/10 12:08:55;;;;;;;95.55;45.45;;;;;;;0.41;70.02;100568.44;2160690;81;21022;-87
2022/01/10 12:12:02;;;;;;;110.55;54.58;;;;;;;0.44;69.84;100562.20;2175600;81;21030;-85
2022/01/10 12:15:05;;;;;;;98.42;47.90;;;;;;;0.43;69.99;100572.28;2183555;81;21022;-86
2022/01/10 12:18:11;;;;;;;105.10;49.75;;;;;;;0.43;70.27;100573.13;2175858;81;21015;-85
2022/01/10 12:21:17;;;;;;;92.92;43.00;;;;;;;0.40;70.03;100586.83;2156655;81;21361;-86
2022/01/10 12:24:21;;;;;;;112.80;46.02;;;;;;;0.37;69.97;100583.93;2168133;80;21153;-85
2022/01/10 12:27:23;;;;;;;102.55;51.23;;;;;;;0.30;69.79;100600.03;2174911;81;21089;-85
2022/01/10 12:30:26;;;;;;;97.95;45.67;;;;;;;0.23;70.36;100596.95;2184171;80;21356;-85
2022/01/10 12:33:29;;;;;;;103.95;48.02;;;;;;;0.21;69.90;100612.68;2182492;80;21534;-85
2022/01/10 12:36:37;;;;;;;100.02;48.85;;;;;;;0.19;69.87;100612.39;2178453;80;21002;-85
2022/01/10 12:39:40;;;;;;;97.40;48.33;;;;;;;0.17;70.16;100622.07;2178346;80;21259;-86
2022/01/10 12:42:52;;;;;;;95.50;45.43;;;;;;;0.18;70.27;100623.77;2185651;80;21093;-87
2022/01/10 12:45:53;;;;;;;;;;;;;;;0.16;70.17;100639.97;2187245;80;21554;-89
2022/01/10 12:48:56;;;;;;;84.47;42.85;;;;;;;0.11;69.65;100644.14;2185429;80;20396;-86
2022/01/10 12:51:59;;;;;;;102.45;45.65;;;;;;;0.01;69.83;100648.69;2180633;80;21090;-86
2022/01/10 12:55:04;;;;;;;88.52;42.08;;;;;;;-0.07;70.03;100664.29;2187040;80;21053;-87
2022/01/10 12:58:09;;;;;;;97.55;43.48;;;;;;;-0.10;70.21;100674.06;2177011;80;21037;-85
2022/01/10 13:01:14;;;;;;;91.45;43.08;;;;;;;-0.12;70.28;100674.60;2183052;80;21091;-86
2022/01/10 13:04:23;;;;;;;86.53;40.83;;;;;;;-0.15;70.34;100683.44;2182639;80;20990;-86
2022/01/10 13:07:28;;;;;;;94.05;43.92;;;;;;;-0.17;69.95;100693.13;2180336;80;20973;-86
2022/01/10 13:10:36;;;;;;;87.57;42.08;;;;;;;-0.16;70.43;100700.02;2185188;80;20999;-86
2022/01/10 13:13:39;;;;;;;90.70;45.70;;;;;;;-0.16;70.55;100703.94;2182311;80;21024;-85
2022/01/10 13:16:44;;;;;;;97.78;46.98;;;;;;;-0.15;70.78;100708.22;2183264;80;21137;-82
2022/01/10 13:20:00;;;;;;;93.03;40.23;;;;;;;-0.16;70.47;100709.16;2185566;80;21446;-82
2022/01/10 13:23:09;;;;;;;78.45;36.58;;;;;;;-0.22;70.45;100719.09;2184713;80;21549;-85
2022/01/10 13:26:24;;;;;;;95.72;47.00;;;;;;;-0.27;70.58;100725.84;2197616;80;21576;-84
2022/01/10 13:29:49;;;;;;;90.20;39.10;;;;;;;-0.32;70.70;100727.86;2201854;80;21446;-84
2022/01/10 13:32:57;;;;;;;94.65;47.55;;;;;;;-0.38;70.92;100732.94;2201658;80;20950;-81
2022/01/10 13:35:59;;;;;;;98.15;48.02;;;;;;;-0.41;71.15;100741.39;2138885;81;21052;-83
2022/01/10 13:39:06;;;;;;;100.38;49.18;;;;;;;-0.44;71.33;100748.07;2183207;80;21022;-82
2022/01/10 13:42:10;;;;;;;107.78;49.20;;;;;;;-0.44;71.48;100757.20;2178515;80;21029;-84
2022/01/10 13:45:14;;;;;;;95.70;43.68;;;;;;;-0.49;71.26;100768.69;2183854;80;21042;-83
2022/01/10 13:48:35;;;;;;;105.80;49.35;;;;;;;-0.57;71.36;100776.53;2137158;82;21027;-84
2022/01/10 13:51:41;;;;;;;103.83;48.45;;;;;;;-0.64;71.50;100770.81;2179427;80;21751;-85
2022/01/10 13:54:43;;;;;;;114.30;51.85;;;;;;;-0.72;71.58;100778.17;2197426;80;20999;-84
2022/01/10 13:57:46;;;;;;;104.45;46.50;;;;;;;-0.82;71.48;100795.19;2196751;80;20966;-83
2022/01/10 14:00:58;;;;;;;98.92;43.23;;;;;;;-0.91;71.59;100793.42;2184058;80;20959;-84
2022/01/10 14:04:22;;;;;;;97.78;45.55;;;;;;;-0.96;71.91;100800.66;2149840;80;21018;-84
2022/01/10 14:07:27;;;;;;;99.22;46.48;;;;;;;-1.02;72.05;100810.52;2185416;80;21072;-84
2022/01/10 14:10:31;;;;;;;106.35;50.58;;;;;;;-1.08;72.13;100823.37;2154480;80;21052;-86
2022/01/10 14:13:34;;;;;;;111.97;52.00;;;;;;;-1.14;72.34;100818.02;2186182;80;21023;-84
2022/01/10 14:16:43;;;;;;;108.20;51.60;;;;;;;-1.19;72.44;100822.59;2184985;80;21091;-84
2022/01/10 14:19:44;;;;;;;119.80;52.08;;;;;;;-1.21;72.67;100823.58;2178470;80;21588;-84